Time;durP1;ratioP1;P1;durP2;ratioP2;P2;SDS_P1;SDS_P2;PMS_P1;PMS_P2;Temp;Humidity;BMP_temperature;BMP_pressure;BME280_temperature;BME280_humidity;BME280_pressure;Samples;Min_cycle;Max_cycle;Signal;HPM_P1;HPM_P2
2022/08/09 00:00:48;;;;;;;6.25;5.03;;;;;;;19.45;88.78;100350.87;1846972;76;21064;-80
2022/08/09 00:03:15;;;;;;;4.83;4.42;;;;;;;19.45;88.77;100350.38;1800951;78;21052;-81
2022/08/09 00:05:42;;;;;;;4.72;4.33;;;;;;;19.44;88.73;100355.97;1841279;76;21202;-82
2022/08/09 00:08:13;;;;;;;6.65;4.78;;;;;;;19.44;88.62;100351.40;1838001;77;21108;-81
2022/08/09 00:10:38;;;;;;;6.28;5.10;;;;;;;19.51;88.50;100352.74;1854694;76;21017;-86
2022/08/09 00:13:08;;;;;;;5.50;4.97;;;;;;;19.50;88.50;100348.38;1855522;77;21454;-82
2022/08/09 00:15:34;;;;;;;5.45;4.95;;;;;;;19.48;88.50;100349.11;1852308;77;21484;-81
2022/08/09 00:18:01;;;;;;;5.05;4.62;;;;;;;19.52;88.48;100350.86;1828431;77;21584;-83
2022/08/09 00:20:27;;;;;;;6.30;4.60;;;;;;;19.58;88.29;100350.02;1851317;77;21108;-83
2022/08/09 00:22:54;;;;;;;5.70;4.97;;;;;;;19.57;88.30;100348.38;1843055;76;21033;-84
2022/08/09 00:25:21;;;;;;;6.45;4.75;;;;;;;19.54;88.25;100346.91;1852834;77;21005;-84
2022/08/09 00:27:47;;;;;;;5.22;4.80;;;;;;;19.57;88.14;100342.45;1837909;77;21440;-85
2022/08/09 00:30:13;;;;;;;5.90;5.03;;;;;;;19.65;87.87;100341.39;1831685;77;21248;-84
2022/08/09 00:32:40;;;;;;;7.55;5.70;;;;;;;19.61;87.89;100342.33;1844339;76;21015;-85
2022/08/09 00:35:08;;;;;;;6.83;5.03;;;;;;;19.56;88.06;100344.01;1850338;76;20974;-84
2022/08/09 00:37:34;;;;;;;6.35;5.33;;;;;;;19.55;88.01;100342.37;1842369;77;21022;-84
2022/08/09 00:40:01;;;;;;;5.92;5.33;;;;;;;19.60;87.85;100335.80;1830798;75;21069;-83
2022/08/09 00:42:27;;;;;;;5.92;5.37;;;;;;;19.59;87.91;100344.94;1845390;77;21949;-82
2022/08/09 00:44:56;;;;;;;5.42;4.87;;;;;;;19.56;87.96;100346.70;1829130;77;21041;-82
2022/08/09 00:47:22;;;;;;;5.67;5.20;;;;;;;19.57;87.95;100345.15;1841294;76;21104;-83
2022/08/09 00:49:49;;;;;;;6.42;4.72;;;;;;;19.63;87.79;100341.59;1852130;76;20970;-83
2022/08/09 00:52:16;;;;;;;7.17;4.95;;;;;;;19.59;87.92;100347.64;1817128;77;21087;-84
2022/08/09 00:54:42;;;;;;;5.50;5.00;;;;;;;19.54;88.23;100350.95;1860460;75;21127;-82
2022/08/09 00:57:09;;;;;;;6.85;5.08;;;;;;;19.54;88.17;100346.09;1788471;78;20974;-84
2022/08/09 00:59:39;;;;;;;5.30;4.80;;;;;;;19.61;88.07;100348.25;1777069;80;20998;-84
2022/08/09 01:02:06;;;;;;;8.05;5.58;;;;;;;19.59;88.09;100349.80;1764098;80;21035;-84
2022/08/09 01:05:04;;;;;;;5.50;4.85;;;;;;;19.53;88.16;100346.63;1793339;80;21089;-81
2022/08/09 01:07:59;;;;;;;6.90;4.85;;;;;;;19.52;88.18;100341.44;1770015;79;22257;-80
2022/08/09 01:11:08;;;;;;;7.12;4.78;;;;;;;19.57;88.14;100337.59;1796398;78;21041;-82
2022/08/09 01:13:49;;;;;;;6.67;4.67;;;;;;;19.50;88.23;100344.33;1810862;77;21604;-82
2022/08/09 01:16:13;;;;;;;4.60;4.20;;;;;;;19.38;88.48;100349.55;1771889;79;21096;-80
2022/08/09 01:18:43;;;;;;;6.75;4.97;;;;;;;19.44;88.39;100346.53;1789712;78;20973;-80
2022/08/09 01:21:49;;;;;;;5.12;4.62;;;;;;;19.48;88.25;100343.72;1800617;78;21041;-80
2022/08/09 01:24:39;;;;;;;6.65;4.67;;;;;;;19.47;88.38;100352.01;1787330;79;21014;-80
2022/08/09 01:27:08;;;;;;;5.42;4.30;;;;;;;19.39;88.53;100351.72;1789633;78;21581;-83
2022/08/09 01:29:55;;;;;;;5.87;4.20;;;;;;;19.41;88.54;100351.84;1818455;78;21037;-82
2022/08/09 01:32:25;;;;;;;8.15;4.67;;;;;;;19.48;88.44;100346.95;1802009;77;21072;-83
2022/08/09 01:34:51;;;;;;;5.55;4.00;;;;;;;19.44;88.54;100339.80;1773498;78;21219;-81
2022/08/09 01:37:18;;;;;;;5.25;4.10;;;;;;;19.37;88.58;100341.18;1780410;80;21076;-83
2022/08/09 01:39:45;;;;;;;4.67;3.85;;;;;;;19.39;88.46;100343.14;1779642;79;21065;-83
2022/08/09 01:42:11;;;;;;;4.33;3.35;;;;;;;19.42;88.10;100338.66;1801765;78;21025;-83
2022/08/09 01:44:38;;;;;;;3.92;3.40;;;;;;;19.38;87.98;100341.47;1806262;78;21037;-82
2022/08/09 01:47:06;;;;;;;4.00;3.60;;;;;;;19.33;87.67;100346.66;1748251;78;21241;-81
2022/08/09 01:49:37;;;;;;;5.35;2.87;;;;;;;19.28;87.49;100351.86;1812142;78;21029;-85
2022/08/09 01:52:08;;;;;;;3.60;3.30;;;;;;;19.30;87.26;100355.17;1784728;79;21091;-87
2022/08/09 01:54:39;;;;;;;3.02;2.72;;;;;;;19.36;86.77;100352.16;1807674;79;21580;-83
2022/08/09 01:57:22;;;;;;;2.87;2.67;;;;;;;19.30;86.50;100351.66;1811340;79;21007;-83
2022/08/09 01:59:52;;;;;;;2.70;2.50;;;;;;;19.20;86.18;100346.19;1794888;79;21115;-84
2022/08/09 02:02:25;;;;;;;2.67;2.47;;;;;;;19.16;85.83;100350.34;1778146;78;20880;-82
2022/08/09 02:04:52;;;;;;;4.55;2.77;;;;;;;19.15;85.72;100351.88;1771800;80;21149;-83
2022/08/09 02:07:19;;;;;;;2.77;2.58;;;;;;;19.04;85.69;100348.80;1789436;78;21065;-81
2022/08/09 02:09:56;;;;;;;3.70;2.12;;;;;;;18.97;85.84;100345.28;1793780;79;21022;-80
2022/08/09 02:12:23;;;;;;;3.98;2.22;;;;;;;18.98;85.92;100349.61;1787491;79;21025;-84
2022/08/09 02:14:51;;;;;;;2.62;2.05;;;;;;;19.04;85.84;100346.11;1776118;80;21058;-83
2022/08/09 02:17:26;;;;;;;2.95;2.75;;;;;;;19.01;85.75;100338.44;1788315;79;21181;-84
2022/08/09 02:19:53;;;;;;;4.67;2.47;;;;;;;18.98;85.91;100347.45;1793087;79;20963;-82
2022/08/09 02:22:37;;;;;;;3.83;2.35;;;;;;;18.94;86.15;100350.25;1763103;80;21058;-82
2022/08/09 02:25:09;;;;;;;4.20;2.83;;;;;;;18.94;86.03;100345.69;1774996;79;21179;-82
2022/08/09 02:27:35;;;;;;;4.83;2.98;;;;;;;18.98;85.98;100346.09;1780154;79;20991;-81
2022/08/09 02:30:02;;;;;;;4.33;3.12;;;;;;;18.93;85.90;100344.54;1793270;79;21593;-81
2022/08/09 02:32:30;;;;;;;3.77;3.05;;;;;;;18.84;85.99;100345.28;1775012;79;21705;-82
2022/08/09 02:35:02;;;;;;;3.42;3.12;;;;;;;18.82;86.17;100348.70;1766513;79;21094;-81
2022/08/09 02:37:29;;;;;;;;;;;;;;;18.88;86.01;100353.78;1774728;79;22077;-79
2022/08/09 02:40:02;;;;;;;3.27;3.08;;;;;;;18.83;86.12;100359.27;1779251;78;20186;-82
2022/08/09 02:42:36;;;;;;;2.65;2.45;;;;;;;18.77;86.19;100357.88;1782757;79;21074;-83
2022/08/09 02:45:19;;;;;;;3.00;2.80;;;;;;;18.73;86.46;100355.30;1784375;79;20995;-81
2022/08/09 02:47:47;;;;;;;3.05;2.70;;;;;;;18.78;86.43;100358.20;1794284;79;21018;-83
2022/08/09 02:50:18;;;;;;;2.67;2.47;;;;;;;18.72;86.62;100353.66;1773958;79;21173;-85
2022/08/09 02:52:52;;;;;;;2.80;2.40;;;;;;;18.67;86.86;100365.83;1754289;79;21101;-83
2022/08/09 02:55:18;;;;;;;3.90;3.00;;;;;;;18.71;86.96;100367.60;1774552;79;21077;-84
2022/08/09 02:57:45;;;;;;;3.92;2.95;;;;;;;18.78;86.80;100363.05;1745072;79;21014;-83
2022/08/09 03:00:12;;;;;;;2.72;2.52;;;;;;;18.77;86.90;100365.95;1774799;80;21074;-83
2022/08/09 03:02:43;;;;;;;2.90;2.70;;;;;;;18.71;87.11;100359.53;1782315;80;21431;-84
2022/08/09 03:05:11;;;;;;;3.98;2.52;;;;;;;18.66;87.24;100364.19;1838940;75;21049;-85
2022/08/09 03:07:38;;;;;;;2.60;2.40;;;;;;;18.73;87.23;100356.63;1831218;77;20971;-83
2022/08/09 03:10:06;;;;;;;2.47;2.27;;;;;;;18.75;87.20;100358.08;1846545;77;21033;-82
2022/08/09 03:12:35;;;;;;;4.40;2.60;;;;;;;18.72;87.33;100355.00;1836868;77;21006;-84
2022/08/09 03:15:02;;;;;;;2.37;2.12;;;;;;;18.70;87.42;100355.69;1803664;77;21091;-83
2022/08/09 03:17:28;;;;;;;2.55;2.08;;;;;;;18.73;87.31;100364.71;1823488;76;21081;-83
2022/08/09 03:19:59;;;;;;;2.83;2.42;;;;;;;18.80;87.08;100365.05;1838322;76;22221;-82
2022/08/09 03:22:27;;;;;;;3.25;2.20;;;;;;;18.80;87.22;100369.62;1833655;76;20989;-83
2022/08/09 03:24:54;;;;;;;4.12;2.67;;;;;;;18.76;87.32;100361.62;1832227;76;21318;-82
2022/08/09 03:27:20;;;;;;;4.75;2.02;;;;;;;18.80;87.37;100365.05;1840917;76;21867;-81
2022/08/09 03:29:47;;;;;;;5.72;2.30;;;;;;;18.93;87.14;100363.38;1833994;76;21455;-82
2022/08/09 03:32:14;;;;;;;3.05;2.58;;;;;;;18.93;87.10;100353.96;1831258;76;21601;-78
2022/08/09 03:34:40;;;;;;;2.67;2.35;;;;;;;18.92;86.97;100353.67;1829425;76;21561;-80
2022/08/09 03:37:09;;;;;;;2.92;2.50;;;;;;;18.94;87.01;100361.84;1808435;76;20987;-84
2022/08/09 03:39:37;;;;;;;2.45;2.25;;;;;;;19.01;86.85;100359.16;1817584;77;21139;-83
2022/08/09 03:42:03;;;;;;;4.47;2.60;;;;;;;19.01;86.89;100369.41;1837796;76;21033;-84
2022/08/09 03:44:30;;;;;;;2.83;2.12;;;;;;;19.01;86.91;100372.62;1838380;76;21038;-82
2022/08/09 03:46:57;;;;;;;3.17;2.30;;;;;;;18.99;86.94;100380.90;1839937;76;21033;-82
2022/08/09 03:49:24;;;;;;;2.42;2.22;;;;;;;19.08;86.74;100384.72;1831522;77;20967;-81
2022/08/09 03:51:55;;;;;;;4.47;2.67;;;;;;;19.17;86.51;100384.82;1822245;77;21113;-82
2022/08/09 03:54:22;;;;;;;3.72;2.35;;;;;;;19.17;86.33;100380.78;1855556;75;21023;-81
2022/08/09 03:56:48;;;;;;;2.70;2.50;;;;;;;19.14;86.30;100377.14;1849722;77;20985;-86
2022/08/09 03:59:15;;;;;;;4.33;2.22;;;;;;;19.11;86.31;100378.93;1855051;75;20974;-83
2022/08/09 04:01:42;;;;;;;3.67;2.10;;;;;;;19.18;86.17;100383.27;1846535;75;21029;-83
2022/08/09 04:04:08;;;;;;;3.87;2.67;;;;;;;19.28;85.90;100380.15;1827623;77;21184;-81
2022/08/09 04:06:35;;;;;;;2.92;2.40;;;;;;;19.27;85.86;100377.13;1834011;77;20929;-80
2022/08/09 04:09:05;;;;;;;3.05;2.25;;;;;;;19.26;85.85;100375.49;1825800;76;21039;-81
2022/08/09 04:11:30;;;;;;;3.42;2.33;;;;;;;19.27;85.75;100377.66;1860662;75;20962;-78
2022/08/09 04:13:57;;;;;;;2.30;2.10;;;;;;;19.34;85.48;100373.92;1804459;77;20965;-81
2022/08/09 04:16:24;;;;;;;2.40;2.20;;;;;;;19.47;84.96;100373.56;1857538;77;21551;-81
2022/08/09 04:18:51;;;;;;;2.62;2.40;;;;;;;19.52;84.64;100375.94;1847168;77;20978;-81
2022/08/09 04:21:18;;;;;;;3.77;2.10;;;;;;;19.57;83.87;100372.63;1839762;75;21065;-82
2022/08/09 04:23:44;;;;;;;3.42;2.17;;;;;;;19.68;83.68;100365.73;1856296;77;21560;-83
2022/08/09 04:26:11;;;;;;;2.12;1.92;;;;;;;19.84;82.22;100363.95;1855099;76;21017;-83
2022/08/09 04:28:37;;;;;;;3.92;2.10;;;;;;;19.94;80.83;100366.19;1856761;77;20983;-82
2022/08/09 04:31:05;;;;;;;2.27;2.02;;;;;;;19.92;80.41;100358.31;1850122;75;22355;-84
2022/08/09 04:33:32;;;;;;;2.80;2.12;;;;;;;19.90;80.14;100362.27;1856907;77;21177;-83
2022/08/09 04:35:58;;;;;;;3.60;2.00;;;;;;;19.87;79.84;100361.34;1849526;75;21009;-82
2022/08/09 04:38:27;;;;;;;2.52;1.75;;;;;;;19.85;80.04;100362.90;1828844;77;21025;-83
2022/08/09 04:40:53;;;;;;;2.00;1.80;;;;;;;19.91;79.57;100363.91;1842013;77;21926;-84
2022/08/09 04:43:20;;;;;;;2.50;1.90;;;;;;;20.00;79.26;100362.63;1844026;77;21028;-82
2022/08/09 04:45:47;;;;;;;2.35;1.80;;;;;;;20.03;79.20;100362.22;1840650;75;21033;-83
2022/08/09 04:48:13;;;;;;;1.90;1.80;;;;;;;20.04;79.01;100363.32;1852643;75;21025;-81
2022/08/09 04:50:41;;;;;;;2.87;2.67;;;;;;;20.07;78.48;100363.94;1855879;75;21198;-83
2022/08/09 04:53:09;;;;;;;2.87;2.40;;;;;;;20.13;78.32;100358.52;1840096;75;21179;-81
2022/08/09 04:55:38;;;;;;;2.45;2.10;;;;;;;20.28;78.25;100364.98;1819893;78;21064;-82
2022/08/09 04:58:05;;;;;;;3.05;2.77;;;;;;;20.41;77.45;100363.52;1821059;78;20952;-81
2022/08/09 05:00:33;;;;;;;6.47;2.80;;;;;;;20.43;77.35;100370.05;1819826;77;21029;-84
2022/08/09 05:03:03;;;;;;;2.55;2.12;;;;;;;20.46;77.21;100372.86;1822311;77;20945;-84
2022/08/09 05:05:30;;;;;;;3.52;2.00;;;;;;;20.47;76.87;100363.17;1815045;77;21122;-83
2022/08/09 05:08:39;;;;;;;2.70;2.22;;;;;;;20.53;76.67;100361.48;1801803;77;22638;-80
2022/08/09 05:11:05;;;;;;;2.83;2.22;;;;;;;20.57;76.58;100364.04;1778012;79;20930;-84
2022/08/09 05:13:32;;;;;;;2.50;2.22;;;;;;;20.64;76.05;100364.86;1789373;80;21210;-81
2022/08/09 05:15:59;;;;;;;2.67;2.25;;;;;;;20.62;76.28;100372.34;1781119;80;20879;-83
2022/08/09 05:18:28;;;;;;;4.35;2.33;;;;;;;20.64;76.18;100370.79;1783598;80;21004;-82
2022/08/09 05:20:56;;;;;;;2.30;2.10;;;;;;;20.61;76.47;100370.18;1774172;79;21025;-83
2022/08/09 05:23:23;;;;;;;4.45;2.30;;;;;;;20.60;76.51;100370.39;1782791;80;20941;-80
2022/08/09 05:25:50;;;;;;;3.42;2.22;;;;;;;20.63;76.38;100371.31;1771143;80;21460;-81
2022/08/09 05:28:18;;;;;;;3.22;2.45;;;;;;;20.67;75.99;100361.73;1779460;80;20901;-81
2022/08/09 05:30:46;;;;;;;2.45;2.27;;;;;;;20.65;75.98;100369.72;1776908;79;21080;-79
2022/08/09 05:33:13;;;;;;;2.90;2.33;;;;;;;20.61;76.22;100376.93;1765461;80;21041;-79
2022/08/09 05:35:39;;;;;;;3.12;2.10;;;;;;;20.58;76.04;100377.33;1755331;80;21536;-79
2022/08/09 05:38:05;;;;;;;3.17;2.45;;;;;;;20.54;76.41;100382.03;1777196;80;21248;-81
2022/08/09 05:40:33;;;;;;;4.03;2.00;;;;;;;20.56;76.38;100380.77;1771624;80;21301;-79
2022/08/09 05:42:59;;;;;;;2.40;2.20;;;;;;;20.66;76.30;100383.01;1777723;80;20994;-82
2022/08/09 05:45:28;;;;;;;4.03;2.58;;;;;;;20.67;76.09;100381.12;1774137;80;21045;-82
2022/08/09 05:47:55;;;;;;;3.33;2.30;;;;;;;20.64;75.93;100378.88;1781615;79;21034;-82
2022/08/09 05:50:24;;;;;;;5.97;2.40;;;;;;;20.64;76.13;100384.28;1775665;80;21209;-82
2022/08/09 05:52:50;;;;;;;2.17;2.00;;;;;;;20.66;76.21;100387.59;1761402;79;21066;-82
2022/08/09 05:55:17;;;;;;;4.95;2.33;;;;;;;20.78;76.21;100383.13;1756086;79;20932;-82
2022/08/09 05:57:44;;;;;;;2.87;2.22;;;;;;;20.95;76.14;100383.41;1783332;80;21018;-80
2022/08/09 06:00:14;;;;;;;6.55;2.37;;;;;;;21.05;75.84;100379.67;1775054;79;21060;-81
2022/08/09 06:02:41;;;;;;;5.60;2.40;;;;;;;21.18;75.74;100374.69;1761854;79;22168;-85
2022/08/09 06:05:09;;;;;;;2.35;2.08;;;;;;;21.31;75.52;100385.37;1757302;79;21074;-86
2022/08/09 06:07:37;;;;;;;2.87;2.20;;;;;;;21.43;74.23;100383.28;1775098;80;20994;-81
2022/08/09 06:10:05;;;;;;;2.37;2.15;;;;;;;21.48;74.09;100385.65;1767738;79;21557;-79
2022/08/09 06:12:32;;;;;;;5.08;2.02;;;;;;;21.54;73.95;100386.63;1769218;79;21050;-78
2022/08/09 06:15:00;;;;;;;5.03;2.30;;;;;;;21.67;73.77;100386.98;1783680;80;21644;-78
2022/08/09 06:17:26;;;;;;;3.92;2.20;;;;;;;21.84;73.34;100391.27;1781193;79;21030;-79
2022/08/09 06:19:54;;;;;;;2.20;2.00;;;;;;;21.93;72.89;100393.97;1773888;79;21046;-76
2022/08/09 06:22:22;;;;;;;2.30;2.10;;;;;;;21.98;72.55;100393.59;1763841;79;21074;-76
2022/08/09 06:24:48;;;;;;;5.00;2.20;;;;;;;22.08;71.81;100394.91;1781928;80;21048;-76
2022/08/09 06:27:15;;;;;;;4.62;2.27;;;;;;;22.08;71.38;100393.05;1780978;80;21904;-74
2022/08/09 06:29:41;;;;;;;3.90;2.55;;;;;;;22.04;71.39;100395.06;1777578;79;21076;-78
2022/08/09 06:32:08;;;;;;;3.67;1.85;;;;;;;22.03;71.10;100396.95;1762506;79;21565;-77
2022/08/09 06:34:35;;;;;;;4.08;1.90;;;;;;;21.99;70.58;100394.41;1767461;80;21553;-75
2022/08/09 06:37:01;;;;;;;4.03;2.58;;;;;;;21.93;70.77;100389.91;1775307;79;21549;-77
2022/08/09 06:39:29;;;;;;;2.85;2.20;;;;;;;21.87;71.08;100398.41;1775184;80;21249;-80
2022/08/09 06:41:56;;;;;;;4.03;1.98;;;;;;;21.83;71.28;100397.72;1769516;80;21482;-82
2022/08/09 06:44:43;;;;;;;2.95;2.12;;;;;;;21.89;71.46;100400.36;1626932;87;21615;-81
2022/08/09 06:47:10;;;;;;;2.87;2.05;;;;;;;22.01;71.42;100401.77;1638491;86;21048;-79
2022/08/09 06:49:37;;;;;;;3.95;1.87;;;;;;;22.08;71.09;100407.93;1611455;87;21133;-81
2022/08/09 06:52:04;;;;;;;3.05;2.10;;;;;;;22.14;70.97;100400.78;1612260;88;21852;-78
2022/08/09 06:54:38;;;;;;;2.45;1.90;;;;;;;22.18;71.04;100404.14;1587931;88;21082;-78
2022/08/09 06:57:05;;;;;;;3.15;2.02;;;;;;;22.23;70.75;100401.27;1602863;87;21070;-79
2022/08/09 06:59:31;;;;;;;3.25;2.05;;;;;;;22.26;70.34;100404.92;1575356;88;21058;-77
2022/08/09 07:01:58;;;;;;;13.58;2.87;;;;;;;22.27;70.18;100403.85;1601852;88;21082;-79
2022/08/09 07:04:24;;;;;;;7.45;2.47;;;;;;;22.29;69.87;100406.64;1592668;88;21840;-80
2022/08/09 07:06:51;;;;;;;5.55;2.80;;;;;;;22.31;69.79;100409.10;1600760;88;21059;-80
2022/08/09 07:09:17;;;;;;;4.42;2.20;;;;;;;22.34;69.84;100410.83;1602350;88;21149;-81
2022/08/09 07:11:45;;;;;;;2.20;2.00;;;;;;;22.42;69.72;100410.22;1600731;89;21662;-82
2022/08/09 07:14:16;;;;;;;2.47;2.27;;;;;;;22.45;68.60;100409.23;1600778;88;21146;-83
2022/08/09 07:16:40;;;;;;;3.45;2.10;;;;;;;22.48;68.16;100412.81;1599624;88;21542;-79
2022/08/09 07:19:09;;;;;;;2.02;1.70;;;;;;;22.49;68.03;100415.02;1604760;88;21419;-82
2022/08/09 07:21:35;;;;;;;4.53;2.95;;;;;;;22.54;67.09;100420.55;1606927;87;20995;-80
2022/08/09 07:24:01;;;;;;;5.90;2.22;;;;;;;22.56;67.07;100410.30;1603207;89;21035;-82
2022/08/09 07:26:28;;;;;;;2.30;2.10;;;;;;;22.62;66.97;100404.49;1587990;89;21796;-83
2022/08/09 07:28:56;;;;;;;2.83;2.00;;;;;;;22.70;67.01;100407.71;1601650;89;22322;-83
2022/08/09 07:31:23;;;;;;;2.65;2.10;;;;;;;22.76;67.26;100405.42;1596373;89;21162;-82
2022/08/09 07:33:49;;;;;;;1.98;1.87;;;;;;;22.86;67.30;100412.16;1600494;88;21134;-82
2022/08/09 07:36:16;;;;;;;2.60;1.85;;;;;;;23.00;66.82;100413.58;1600963;89;21150;-82
2022/08/09 07:38:42;;;;;;;2.25;1.70;;;;;;;23.15;65.89;100410.45;1619335;88;21099;-83
2022/08/09 07:41:08;;;;;;;2.77;2.05;;;;;;;23.27;64.16;100404.49;1594369;88;21092;-83
2022/08/09 07:43:35;;;;;;;1.80;1.50;;;;;;;;;;1596890;87;21552;-84
2022/08/09 07:46:01;;;;;;;3.52;1.90;;;;;;;23.49;61.88;100399.84;1626241;86;21616;-85
2022/08/09 07:48:28;;;;;;;2.75;1.75;;;;;;;23.55;61.16;100401.06;1614293;88;21101;-85
2022/08/09 07:50:57;;;;;;;3.58;1.45;;;;;;;23.63;60.95;100400.41;1671145;84;21414;-83
2022/08/09 07:53:23;;;;;;;2.08;1.60;;;;;;;23.66;60.09;100400.77;1668144;86;21845;-83
2022/08/09 07:55:50;;;;;;;2.40;1.70;;;;;;;23.68;60.23;100404.06;1654865;86;21095;-82
2022/08/09 07:58:17;;;;;;;1.87;1.50;;;;;;;23.73;59.07;100406.05;1664782;84;21080;-82
2022/08/09 08:00:45;;;;;;;2.22;1.80;;;;;;;23.74;58.63;100411.78;1666163;85;21046;-84
2022/08/09 08:03:11;;;;;;;2.20;1.90;;;;;;;23.68;59.15;100406.77;1663295;84;21218;-83
2022/08/09 08:05:38;;;;;;;2.40;1.80;;;;;;;23.64;58.86;100406.97;1654981;84;21566;-83
2022/08/09 08:08:07;;;;;;;2.37;1.87;;;;;;;23.60;60.02;100411.19;1661960;84;21036;-84
2022/08/09 08:10:34;;;;;;;2.02;1.92;;;;;;;23.63;60.01;100416.69;1633309;87;21054;-85
2022/08/09 08:13:01;;;;;;;5.15;2.22;;;;;;;23.64;59.39;100411.54;1624499;88;21025;-86
2022/08/09 08:15:28;;;;;;;3.45;1.65;;;;;;;23.60;60.17;100415.80;1624489;88;21093;-84
2022/08/09 08:17:54;;;;;;;3.98;1.87;;;;;;;23.62;60.23;100422.62;1621719;88;21282;-84
2022/08/09 08:20:22;;;;;;;3.47;1.90;;;;;;;23.70;59.48;100424.14;1599490;88;21080;-85
2022/08/09 08:22:48;;;;;;;4.25;1.82;;;;;;;23.77;59.06;100423.48;1619887;88;21557;-82
2022/08/09 08:25:15;;;;;;;2.85;1.72;;;;;;;23.80;58.84;100428.48;1617862;87;21148;-79
2022/08/09 08:27:42;;;;;;;2.00;1.80;;;;;;;23.82;58.78;100429.61;1631352;86;21085;-78
2022/08/09 08:30:10;;;;;;;1.80;1.70;;;;;;;23.83;58.44;100430.70;1627667;86;21526;-79
2022/08/09 08:32:37;;;;;;;3.83;1.87;;;;;;;23.85;58.34;100425.04;1617045;88;21101;-81
2022/08/09 08:35:04;;;;;;;1.70;1.60;;;;;;;23.86;58.14;100426.70;1624044;88;21049;-81
2022/08/09 08:37:30;;;;;;;6.15;1.80;;;;;;;23.89;58.38;100434.34;1619022;88;21149;-76
2022/08/09 08:39:58;;;;;;;2.00;1.60;;;;;;;23.94;58.56;100431.21;1625575;88;21136;-83
2022/08/09 08:42:25;;;;;;;2.17;1.98;;;;;;;24.00;57.99;100425.36;1622539;88;22017;-81
2022/08/09 08:44:54;;;;;;;2.42;1.72;;;;;;;24.03;58.08;100426.25;1630126;86;21059;-81
2022/08/09 08:47:21;;;;;;;2.45;1.77;;;;;;;24.07;58.04;100426.05;1603222;88;21142;-84
2022/08/09 08:49:47;;;;;;;3.08;2.00;;;;;;;24.12;58.44;100419.34;1627640;88;21044;-83
2022/08/09 08:52:18;;;;;;;1.90;1.55;;;;;;;24.21;57.73;100417.09;1620909;88;21051;-84
2022/08/09 08:54:44;;;;;;;2.00;1.80;;;;;;;24.26;57.48;100419.06;1611387;88;21161;-81
2022/08/09 08:57:11;;;;;;;2.10;1.72;;;;;;;24.32;56.98;100422.20;1625631;88;21538;-80
2022/08/09 08:59:37;;;;;;;1.65;1.55;;;;;;;24.39;56.83;100420.13;1615950;88;21050;-81
2022/08/09 09:02:06;;;;;;;2.50;1.70;;;;;;;24.45;56.56;100423.77;1618807;88;21118;-80
2022/08/09 09:04:32;;;;;;;1.72;1.62;;;;;;;24.52;56.59;100419.87;1623737;88;21126;-81
2022/08/09 09:07:04;;;;;;;4.00;1.62;;;;;;;24.56;56.55;100423.47;1592500;89;21154;-81
2022/08/09 09:09:31;;;;;;;1.62;1.52;;;;;;;24.57;56.10;100419.16;1624681;88;21119;-81
2022/08/09 09:11:57;;;;;;;2.00;1.80;;;;;;;24.55;56.36;100411.78;1626636;88;21047;-80
2022/08/09 09:14:25;;;;;;;2.37;1.85;;;;;;;24.61;56.85;100408.59;1625968;88;21149;-83
2022/08/09 09:16:52;;;;;;;1.57;1.45;;;;;;;24.73;56.73;100395.24;1618761;88;21107;-78
2022/08/09 09:19:19;;;;;;;1.77;1.67;;;;;;;24.83;56.62;100393.77;1615416;88;21155;-81
2022/08/09 09:22:04;;;;;;;3.40;1.57;;;;;;;24.98;56.25;100395.92;1627592;88;21058;-80
2022/08/09 09:24:37;;;;;;;1.72;1.57;;;;;;;25.12;55.75;100391.78;1627288;88;21047;-80
2022/08/09 09:27:04;;;;;;;1.98;1.50;;;;;;;25.23;55.02;100392.80;1626648;86;21562;-81
2022/08/09 09:29:40;;;;;;;2.10;1.60;;;;;;;25.28;55.04;100393.70;1589202;90;21079;-81
2022/08/09 09:32:07;;;;;;;1.70;1.60;;;;;;;25.35;54.21;100396.78;1616716;88;21183;-82
2022/08/09 09:34:34;;;;;;;2.92;2.08;;;;;;;25.42;54.06;100393.31;1626897;88;21007;-81
2022/08/09 09:37:04;;;;;;;6.30;1.90;;;;;;;25.51;53.81;100394.54;1627556;88;21090;-80
2022/08/09 09:39:33;;;;;;;1.85;1.55;;;;;;;25.52;53.73;100396.20;1626734;88;21052;-79
2022/08/09 09:42:02;;;;;;;1.70;1.60;;;;;;;25.54;53.63;100392.69;1624458;88;21051;-82
2022/08/09 09:44:32;;;;;;;2.08;1.70;;;;;;;25.53;53.31;100393.75;1581733;88;21517;-82
2022/08/09 09:47:08;;;;;;;4.03;1.80;;;;;;;25.45;53.54;100395.00;1586606;90;21168;-79
2022/08/09 09:49:34;;;;;;;1.80;1.70;;;;;;;25.41;53.43;100397.13;1570660;90;21082;-82
2022/08/09 09:52:08;;;;;;;2.62;2.15;;;;;;;25.42;53.08;100400.12;1556846;90;21673;-81
2022/08/09 09:54:46;;;;;;;3.25;1.70;;;;;;;25.41;52.84;100397.95;1588236;90;21578;-81
2022/08/09 09:57:19;;;;;;;3.87;2.10;;;;;;;25.37;53.05;100393.27;1562823;91;21201;-81
2022/08/09 09:59:47;;;;;;;1.70;1.60;;;;;;;25.30;53.04;100396.15;1561685;91;21051;-82
2022/08/09 10:02:14;;;;;;;1.80;1.65;;;;;;;25.24;53.14;100403.41;1561732;91;21127;-82
2022/08/09 10:04:41;;;;;;;2.10;1.90;;;;;;;25.21;53.44;100399.00;1551641;90;21142;-83
2022/08/09 10:07:24;;;;;;;2.10;1.90;;;;;;;25.21;53.51;100396.28;1563230;90;21122;-82
2022/08/09 10:09:57;;;;;;;3.40;1.80;;;;;;;25.19;53.39;100397.88;1561897;91;21217;-82
2022/08/09 10:12:32;;;;;;;4.73;2.07;;;;;;;25.16;53.20;100394.28;1572065;90;21163;-81
2022/08/09 10:15:11;;;;;;;3.45;1.72;;;;;;;25.11;53.33;100392.84;1570991;89;21126;-81
2022/08/09 10:17:38;;;;;;;2.35;2.15;;;;;;;25.04;53.13;100397.64;1560284;91;21103;-75
2022/08/09 10:20:22;;;;;;;2.72;2.50;;;;;;;24.95;53.13;100396.41;1564108;91;21561;-83
2022/08/09 10:22:54;;;;;;;2.92;2.37;;;;;;;24.85;53.40;100392.99;1566352;89;21155;-82
2022/08/09 10:25:22;;;;;;;3.10;2.15;;;;;;;24.86;53.65;100394.11;1561816;91;21136;-82
2022/08/09 10:27:49;;;;;;;2.05;1.87;;;;;;;24.91;53.38;100398.80;1572215;91;21046;-80
2022/08/09 10:30:18;;;;;;;2.45;1.80;;;;;;;24.93;52.86;100394.74;1570534;88;21515;-81
2022/08/09 10:32:45;;;;;;;3.42;2.02;;;;;;;24.96;52.50;100387.20;1552610;91;21581;-81
2022/08/09 10:35:12;;;;;;;1.90;1.80;;;;;;;24.95;51.85;100393.14;1556624;91;21893;-81
2022/08/09 10:37:39;;;;;;;2.72;1.50;;;;;;;24.88;51.02;100389.80;1567104;91;21090;-81
2022/08/09 10:40:06;;;;;;;3.33;1.77;;;;;;;24.85;51.27;100388.91;1578394;90;21060;-81
2022/08/09 10:42:34;;;;;;;2.87;1.70;;;;;;;24.84;50.55;100382.66;1580281;90;21077;-82
2022/08/09 10:45:07;;;;;;;2.77;1.82;;;;;;;24.82;50.20;100384.80;1579945;88;21077;-85
2022/08/09 10:47:43;;;;;;;2.30;2.08;;;;;;;24.82;49.89;100386.67;1583215;88;21176;-84
2022/08/09 10:53:59;;;;;;;1.77;1.67;;;;;;;24.73;48.91;100380.84;1633450;87;21045;-85
2022/08/09 10:56:29;;;;;;;3.08;1.45;;;;;;;24.63;48.98;100379.33;1633347;86;21101;-84
2022/08/09 10:58:57;;;;;;;2.05;1.80;;;;;;;24.55;48.65;100379.70;1574887;89;21146;-84
2022/08/09 11:01:38;;;;;;;3.15;1.90;;;;;;;24.48;48.69;100380.66;1637257;87;21538;-83
2022/08/09 11:04:14;;;;;;;3.22;1.35;;;;;;;24.44;48.60;100375.97;1637450;87;21227;-87
2022/08/09 11:06:44;;;;;;;1.35;1.20;;;;;;;24.39;48.08;100367.19;1639836;87;21069;-86
2022/08/09 11:09:12;;;;;;;5.12;1.55;;;;;;;24.34;47.61;100369.83;1638802;87;21059;-82
2022/08/09 11:11:57;;;;;;;1.55;1.45;;;;;;;24.28;47.44;100363.99;1632606;87;21141;-81
2022/08/09 11:14:36;;;;;;;1.90;1.50;;;;;;;24.20;47.18;100364.39;1636750;87;22321;-83
2022/08/09 11:17:21;;;;;;;1.60;1.50;;;;;;;24.10;47.62;100358.23;1632025;87;21086;-83
2022/08/09 11:20:06;;;;;;;2.00;1.72;;;;;;;24.01;48.25;100361.89;1558212;90;21088;-86
2022/08/09 11:22:48;;;;;;;2.85;1.50;;;;;;;24.00;48.26;100364.84;1620232;87;21129;-84
2022/08/09 11:25:30;;;;;;;1.65;1.32;;;;;;;23.95;48.30;100357.41;1629878;87;21429;-85
2022/08/09 11:27:57;;;;;;;3.77;1.45;;;;;;;23.89;48.44;100360.58;1626430;87;21126;-82
2022/08/09 11:30:29;;;;;;;1.65;1.47;;;;;;;23.88;48.72;100365.70;1595615;89;21134;-79
2022/08/09 11:33:04;;;;;;;1.63;1.50;;;;;;;23.86;48.96;100361.05;1629744;87;21649;-80
2022/08/09 11:35:46;;;;;;;5.03;1.80;;;;;;;23.81;49.24;100369.62;1633865;87;21097;-81
2022/08/09 11:38:30;;;;;;;2.72;1.90;;;;;;;23.79;49.66;100369.84;1602391;89;21104;-81
2022/08/09 11:40:58;;;;;;;1.98;1.35;;;;;;;23.80;49.20;100370.16;1639825;86;21205;-78